Time,TemperatureF,DewpointF,PressureIn,WindDirection,WindDirectionDegrees,WindSpeedMPH,WindSpeedGustMPH,Humidity,HourlyPrecipIn,Conditions,Clouds,dailyrainin,SoftwareType,DateUTC
2013-02-21 11:40:00,33.9,17.7,30.03,WSW,248,14.0,22.0,51,0.00,,CLR,0.00,VWS V14.01,2013-02-21 16:40:00,
2013-02-21 11:56:00,33.8,17.1,30.02,NW,313,11.0,11.0,50,0.00,,CLR,0.00,VWS V14.01,2013-02-21 16:56:00,
2013-02-21 11:57:00,33.8,17.1,30.02,West,275,11.0,18.0,50,0.00,,SCT049,0.00,VWS V14.01,2013-02-21 16:57:00,
2013-02-21 12:03:00,33.5,17.3,30.02,WSW,250,11.0,12.0,51,0.00,,SCT049,0.00,VWS V14.01,2013-02-21 17:03:00,
2013-02-21 12:08:00,33.8,18.0,30.02,WNW,291,2.0,24.0,52,0.00,,SCT049,0.00,VWS V14.01,2013-02-21 17:08:00,
2013-02-21 12:13:00,34.5,17.8,30.02,SW,224,20.0,22.0,50,0.00,,SCT049,0.00,VWS V14.01,2013-02-21 17:13:00,
2013-02-21 12:18:00,34.8,18.1,30.02,NW,315,14.0,28.0,50,0.00,,SCT049,0.00,VWS V14.01,2013-02-21 17:18:00,
2013-02-21 12:23:00,34.7,18.0,30.01,West,271,14.0,26.0,50,0.00,,SCT049,0.00,VWS V14.01,2013-02-21 17:23:00,
2013-02-21 12:28:00,35.2,18.0,30.01,SW,236,5.0,32.0,49,0.00,,SCT049,0.00,VWS V14.01,2013-02-21 17:28:00,
2013-02-21 12:33:00,35.8,18.5,30.02,NW,308,2.0,18.0,49,0.00,,SCT049,0.00,VWS V14.01,2013-02-21 17:33:00,
2013-02-21 12:38:00,36.3,18.5,30.01,WSW,251,14.0,26.0,48,0.00,,SCT049,0.00,VWS V14.01,2013-02-21 17:38:00,
2013-02-21 12:43:00,36.1,18.3,30.01,WNW,294,17.0,24.0,48,0.00,,SCT049,0.00,VWS V14.01,2013-02-21 17:43:00,
2013-02-21 12:48:00,36.1,18.3,30.01,WSW,238,20.0,24.0,48,0.00,,SCT049,0.00,VWS V14.01,2013-02-21 17:48:00,
2013-02-21 12:53:00,36.4,19.1,30.01,NW,304,14.0,26.0,49,0.00,,SCT049,0.00,VWS V14.01,2013-02-21 17:53:00,
2013-02-21 12:58:00,36.8,19.0,30.01,WNW,292,8.0,30.0,48,0.00,,FEW049,0.00,VWS V14.01,2013-02-21 17:58:00,
2013-02-21 13:04:00,37.1,18.8,30.00,WNW,295,5.0,20.0,47,0.00,,FEW049,0.00,VWS V14.01,2013-02-21 18:04:00,
2013-02-21 13:09:00,37.3,18.9,30.01,NW,304,14.0,20.0,47,0.00,,FEW049,0.00,VWS V14.01,2013-02-21 18:09:00,
2013-02-21 13:14:00,37.8,19.4,30.01,West,267,5.0,14.0,47,0.00,,FEW049,0.00,VWS V14.01,2013-02-21 18:14:00,
2013-02-21 13:19:00,38.3,20.4,30.01,WSW,248,2.0,18.0,48,0.00,,FEW049,0.00,VWS V14.01,2013-02-21 18:19:00,
2013-02-21 13:24:00,38.6,19.6,30.01,West,279,2.0,16.0,46,0.00,,FEW049,0.00,VWS V14.01,2013-02-21 18:24:00,
2013-02-21 13:29:00,38.5,19.5,30.01,WSW,244,2.0,16.0,46,0.00,,FEW049,0.00,VWS V14.01,2013-02-21 18:29:00,
2013-02-21 13:34:00,38.5,19.0,30.02,West,275,23.0,23.0,45,0.00,,FEW049,0.00,VWS V14.01,2013-02-21 18:34:00,
2013-02-21 13:39:00,37.7,18.8,30.02,WNW,284,5.0,28.0,46,0.00,,FEW049,0.00,VWS V14.01,2013-02-21 18:39:00,
2013-02-21 13:44:00,37.2,18.3,30.02,North,360,2.0,20.0,46,0.00,,FEW049,0.00,VWS V14.01,2013-02-21 18:44:00,
2013-02-21 13:49:00,37.0,18.7,30.01,NW,318,14.0,20.0,47,0.00,,FEW049,0.00,VWS V14.01,2013-02-21 18:49:00,
2013-02-21 13:54:00,37.2,19.3,30.02,WSW,257,14.0,16.0,48,0.00,,FEW049,0.00,VWS V14.01,2013-02-21 18:54:00,
2013-02-21 14:00:00,37.1,18.2,30.02,North,355,8.0,16.0,46,0.00,,CLR,0.00,VWS V14.01,2013-02-21 19:00:00,
2013-02-21 14:05:00,37.1,18.8,30.02,North,355,2.0,10.0,47,0.00,,CLR,0.00,VWS V14.01,2013-02-21 19:05:00,
2013-02-21 14:10:00,37.2,19.3,30.02,NNW,333,5.0,12.0,48,0.00,,CLR,0.00,VWS V14.01,2013-02-21 19:10:00,
2013-02-21 14:15:00,37.6,19.2,30.02,WSW,240,11.0,16.0,47,0.00,,CLR,0.00,VWS V14.01,2013-02-21 19:15:00,
2013-02-21 14:20:00,37.6,18.7,30.02,NW,313,2.0,26.0,46,0.00,,CLR,0.00,VWS V14.01,2013-02-21 19:20:00,
2013-02-21 14:25:00,37.5,19.1,30.03,WSW,253,2.0,26.0,47,0.00,,CLR,0.00,VWS V14.01,2013-02-21 19:25:00,
2013-02-21 14:30:00,37.9,19.0,30.03,WSW,237,11.0,26.0,46,0.00,,CLR,0.00,VWS V14.01,2013-02-21 19:30:00,
2013-02-21 14:35:00,37.8,18.9,30.03,NW,317,8.0,22.0,46,0.00,,CLR,0.00,VWS V14.01,2013-02-21 19:35:00,
2013-02-21 14:40:00,37.9,19.5,30.02,SW,225,20.0,24.0,47,0.00,,CLR,0.00,VWS V14.01,2013-02-21 19:40:00,
2013-02-21 14:45:00,37.3,18.9,30.02,WSW,255,8.0,24.0,47,0.00,,CLR,0.00,VWS V14.01,2013-02-21 19:45:00,
2013-02-21 14:50:00,37.0,18.7,30.02,SW,234,20.0,26.0,47,0.00,,CLR,0.00,VWS V14.01,2013-02-21 19:50:00,
2013-02-21 14:55:00,37.3,18.9,30.03,WNW,296,2.0,26.0,47,0.00,,CLR,0.00,VWS V14.01,2013-02-21 19:55:00,
2013-02-21 15:00:00,37.3,18.9,30.03,WNW,292,8.0,8.0,47,0.00,,CLR,0.00,VWS V14.01,2013-02-21 20:00:00,
2013-02-21 15:05:00,37.0,18.7,30.03,WNW,290,23.0,23.0,47,0.00,,CLR,0.00,VWS V14.01,2013-02-21 20:05:00,
2013-02-21 15:11:00,36.9,19.1,30.03,West,281,11.0,14.0,48,0.00,,CLR,0.00,VWS V14.01,2013-02-21 20:11:00,
2013-02-21 15:16:00,37.0,19.1,30.03,WNW,286,8.0,28.0,48,0.00,,CLR,0.00,VWS V14.01,2013-02-21 20:16:00,
2013-02-21 15:21:00,37.1,18.8,30.03,West,269,17.0,26.0,47,0.00,,CLR,0.00,VWS V14.01,2013-02-21 20:21:00,
2013-02-21 15:26:00,37.0,18.7,30.04,WNW,291,20.0,30.0,47,0.00,,CLR,0.00,VWS V14.01,2013-02-21 20:26:00,
2013-02-21 15:31:00,36.8,19.0,30.04,SW,222,17.0,17.0,48,0.00,,CLR,0.00,VWS V14.01,2013-02-21 20:31:00,
2013-02-21 15:36:00,36.8,19.0,30.04,WNW,284,8.0,16.0,48,0.00,,CLR,0.00,VWS V14.01,2013-02-21 20:36:00,
2013-02-21 15:41:00,37.0,19.1,30.05,WNW,288,11.0,12.0,48,0.13,,CLR,0.13,VWS V14.01,2013-02-21 20:41:00,
2013-02-21 15:46:00,37.0,18.7,30.05,WNW,293,8.0,16.0,47,0.13,,CLR,0.13,VWS V14.01,2013-02-21 20:46:00,
2013-02-21 15:51:00,36.4,18.1,30.05,NNW,327,11.0,11.0,47,0.13,,CLR,0.13,VWS V14.01,2013-02-21 20:51:00,
2013-02-21 15:56:00,36.3,18.0,30.06,WSW,250,8.0,20.0,47,0.13,,CLR,0.13,VWS V14.01,2013-02-21 20:56:00,
2013-02-21 16:01:00,35.9,18.1,30.06,WSW,242,17.0,28.0,48,0.13,,CLR,0.13,VWS V14.01,2013-02-21 21:01:00,
2013-02-21 16:06:00,36.0,18.2,30.06,NW,306,17.0,28.0,48,0.13,,CLR,0.13,VWS V14.01,2013-02-21 21:06:00,
2013-02-21 16:11:00,36.0,18.2,30.06,WSW,254,2.0,6.0,48,0.13,,CLR,0.13,VWS V14.01,2013-02-21 21:11:00,
2013-02-21 16:16:00,36.3,18.5,30.07,West,274,8.0,14.0,48,0.13,,CLR,0.13,VWS V14.01,2013-02-21 21:16:00,
2013-02-21 16:21:00,36.2,18.4,30.08,SSW,205,5.0,18.0,48,0.13,,CLR,0.13,VWS V14.01,2013-02-21 21:21:00,
2013-02-21 16:26:00,35.7,18.4,30.08,NW,313,17.0,22.0,49,0.13,,CLR,0.13,VWS V14.01,2013-02-21 21:26:00,
2013-02-21 16:32:00,35.5,18.2,30.08,West,267,5.0,16.0,49,0.13,,CLR,0.13,VWS V14.01,2013-02-21 21:32:00,
2013-02-21 16:37:00,35.3,18.5,30.09,SW,229,14.0,22.0,50,0.13,,CLR,0.13,VWS V14.01,2013-02-21 21:37:00,
2013-02-21 16:42:00,35.2,18.0,30.09,WNW,298,11.0,18.0,49,0.00,,CLR,0.13,VWS V14.01,2013-02-21 21:42:00,
2013-02-21 16:47:00,35.0,17.8,30.09,WSW,246,11.0,24.0,49,0.00,,CLR,0.13,VWS V14.01,2013-02-21 21:47:00,
2013-02-21 16:52:00,34.4,17.7,30.09,WNW,290,23.0,23.0,50,0.00,,CLR,0.13,VWS V14.01,2013-02-21 21:52:00,
2013-02-21 16:57:00,33.8,17.6,30.09,WNW,299,11.0,24.0,51,0.00,,CLR,0.13,VWS V14.01,2013-02-21 21:57:00,
2013-02-21 17:02:00,33.5,17.8,30.10,WSW,253,17.0,18.0,52,0.00,,CLR,0.13,VWS V14.01,2013-02-21 22:02:00,
2013-02-21 17:07:00,33.3,17.6,30.10,WSW,252,2.0,20.0,52,0.00,,CLR,0.13,VWS V14.01,2013-02-21 22:07:00,
2013-02-21 17:12:00,33.2,17.5,30.10,WNW,291,8.0,10.0,52,0.00,,CLR,0.13,VWS V14.01,2013-02-21 22:12:00,
2013-02-21 17:17:00,33.0,17.8,30.11,ENE,67,2.0,26.0,53,0.00,,CLR,0.13,VWS V14.01,2013-02-21 22:17:00,
2013-02-21 17:22:00,32.8,17.6,30.11,ESE,117,5.0,10.0,53,0.00,,CLR,0.13,VWS V14.01,2013-02-21 22:22:00,
2013-02-21 17:27:00,32.4,17.2,30.12,NW,317,2.0,14.0,53,0.00,,CLR,0.13,VWS V14.01,2013-02-21 22:27:00,
2013-02-21 17:32:00,32.2,17.4,30.12,South,187,8.0,20.0,54,0.00,,CLR,0.13,VWS V14.01,2013-02-21 22:32:00,
2013-02-21 17:37:00,32.0,17.7,30.13,WNW,302,20.0,20.0,55,0.00,,CLR,0.13,VWS V14.01,2013-02-21 22:37:00,
2013-02-21 17:42:00,31.8,17.5,30.13,West,264,8.0,24.0,55,0.00,,CLR,0.13,VWS V14.01,2013-02-21 22:42:00,
2013-02-21 17:47:00,31.6,17.3,30.13,WNW,296,2.0,24.0,55,0.00,,CLR,0.13,VWS V14.01,2013-02-21 22:47:00,
2013-02-21 17:52:00,31.5,17.6,30.13,NW,307,5.0,12.0,56,0.00,,CLR,0.13,VWS V14.01,2013-02-21 22:52:00,
2013-02-21 17:58:00,31.4,17.5,30.13,SW,229,2.0,20.0,56,0.00,,CLR,0.13,VWS V14.01,2013-02-21 22:58:00,
2013-02-21 18:03:00,31.3,17.4,30.14,WNW,295,8.0,10.0,56,0.00,,CLR,0.13,VWS V14.01,2013-02-21 23:03:00,
2013-02-21 18:08:00,31.1,17.2,30.14,WNW,291,2.0,16.0,56,0.00,,CLR,0.13,VWS V14.01,2013-02-21 23:08:00,
2013-02-21 18:13:00,30.9,17.5,30.14,WNW,296,2.0,24.0,57,0.00,,CLR,0.13,VWS V14.01,2013-02-21 23:13:00,
2013-02-21 18:18:00,30.7,17.7,30.14,SW,216,11.0,24.0,58,0.00,,CLR,0.13,VWS V14.01,2013-02-21 23:18:00,
2013-02-21 18:23:00,30.6,17.6,30.14,SSW,201,2.0,12.0,58,0.00,,CLR,0.13,VWS V14.01,2013-02-21 23:23:00,
2013-02-21 18:28:00,30.5,17.5,30.14,NW,308,14.0,14.0,58,0.00,,CLR,0.13,VWS V14.01,2013-02-21 23:28:00,
2013-02-21 18:33:00,30.4,17.4,30.14,NW,317,11.0,18.0,58,0.00,,CLR,0.13,VWS V14.01,2013-02-21 23:33:00,
2013-02-21 18:39:00,30.3,17.3,30.14,NW,307,2.0,18.0,58,0.00,,CLR,0.13,VWS V14.01,2013-02-21 23:39:00,
2013-02-21 18:44:00,30.2,17.6,30.15,NE,36,14.0,14.0,59,0.00,,CLR,0.13,VWS V14.01,2013-02-21 23:44:00,
2013-02-21 18:49:00,30.1,17.5,30.16,North,349,2.0,12.0,59,0.00,,CLR,0.13,VWS V14.01,2013-02-21 23:49:00,
2013-02-21 18:54:00,30.0,17.4,30.15,WSW,237,2.0,24.0,59,0.00,,CLR,0.13,VWS V14.01,2013-02-21 23:54:00,
2013-02-21 18:59:00,29.9,17.7,30.16,SSW,192,8.0,24.0,60,0.00,,CLR,0.13,VWS V14.01,2013-02-21 23:59:00,
2013-02-21 19:04:00,29.7,17.5,30.16,WNW,301,14.0,14.0,60,0.00,,CLR,0.13,VWS V14.01,2013-02-22 00:04:00,
2013-02-21 19:09:00,29.7,17.5,30.17,SW,224,17.0,17.0,60,0.00,,CLR,0.13,VWS V14.01,2013-02-22 00:09:00,
2013-02-21 19:14:00,29.6,17.0,30.17,NW,308,2.0,28.0,59,0.00,,CLR,0.13,VWS V14.01,2013-02-22 00:14:00,
2013-02-21 19:19:00,29.5,17.3,30.18,North,350,2.0,28.0,60,0.00,,CLR,0.13,VWS V14.01,2013-02-22 00:19:00,
2013-02-21 19:24:00,29.4,17.6,30.18,WSW,240,8.0,8.0,61,0.00,,CLR,0.13,VWS V14.01,2013-02-22 00:24:00,
2013-02-21 19:29:00,29.3,17.5,30.20,WNW,302,5.0,12.0,61,0.00,,CLR,0.13,VWS V14.01,2013-02-22 00:29:00,
2013-02-21 19:34:00,29.2,17.1,30.20,SW,225,5.0,8.0,60,0.00,,CLR,0.13,VWS V14.01,2013-02-22 00:34:00,
2013-02-21 19:40:00,29.1,17.0,30.21,West,281,2.0,10.0,60,0.00,,CLR,0.13,VWS V14.01,2013-02-22 00:40:00,
2013-02-21 19:45:00,29.0,17.2,30.22,SW,227,11.0,11.0,61,0.00,,CLR,0.13,VWS V14.01,2013-02-22 00:45:00,
2013-02-21 19:50:00,28.9,17.2,30.22,NW,309,8.0,14.0,61,0.00,,CLR,0.13,VWS V14.01,2013-02-22 00:50:00,
2013-02-21 19:55:00,28.8,17.1,30.23,SW,235,5.0,14.0,61,0.00,,CLR,0.13,VWS V14.01,2013-02-22 00:55:00,
2013-02-21 20:00:00,28.7,17.0,30.24,WSW,251,20.0,26.0,61,0.00,,CLR,0.13,VWS V14.01,2013-02-22 01:00:00,
2013-02-21 20:05:00,28.7,17.0,30.25,NW,306,2.0,16.0,61,0.00,,CLR,0.13,VWS V14.01,2013-02-22 01:05:00,
2013-02-21 20:10:00,28.6,17.2,30.25,SW,221,14.0,16.0,62,0.00,,CLR,0.13,VWS V14.01,2013-02-22 01:10:00,
2013-02-21 20:15:00,28.5,17.1,30.25,West,261,2.0,16.0,62,0.00,,CLR,0.13,VWS V14.01,2013-02-22 01:15:00,
2013-02-21 20:20:00,28.4,17.1,30.25,WNW,284,5.0,16.0,62,0.00,,CLR,0.13,VWS V14.01,2013-02-22 01:20:00,
2013-02-21 20:25:00,28.3,17.3,30.25,WNW,298,5.0,22.0,63,0.00,,CLR,0.13,VWS V14.01,2013-02-22 01:25:00,
2013-02-21 20:30:00,28.2,17.2,30.26,NW,304,2.0,0.0,63,0.00,,CLR,0.13,VWS V14.01,2013-02-22 01:30:00,
2013-02-21 20:35:00,28.1,17.1,30.26,West,269,2.0,14.0,63,0.00,,CLR,0.13,VWS V14.01,2013-02-22 01:35:00,
2013-02-21 20:40:00,28.0,17.0,30.26,NW,323,5.0,14.0,63,0.00,,CLR,0.13,VWS V14.01,2013-02-22 01:40:00,
2013-02-21 20:46:00,27.9,17.0,30.27,SW,225,2.0,14.0,63,0.00,,CLR,0.13,VWS V14.01,2013-02-22 01:46:00,
2013-02-21 20:51:00,27.8,16.9,30.27,WNW,294,8.0,8.0,63,0.00,,CLR,0.13,VWS V14.01,2013-02-22 01:51:00,
2013-02-21 20:56:00,27.6,16.7,30.28,NW,306,2.0,14.0,63,0.00,,CLR,0.13,VWS V14.01,2013-02-22 01:56:00,
2013-02-21 21:01:00,27.5,16.9,30.28,West,260,2.0,4.0,64,0.00,,CLR,0.13,VWS V14.01,2013-02-22 02:01:00,
2013-02-21 21:06:00,27.4,16.8,30.28,WSW,240,2.0,16.0,64,0.00,,CLR,0.13,VWS V14.01,2013-02-22 02:06:00,
2013-02-21 21:11:00,27.3,16.8,30.27,West,263,2.0,10.0,64,0.00,,CLR,0.13,VWS V14.01,2013-02-22 02:11:00,
2013-02-21 21:16:00,27.1,16.6,30.27,West,259,35.0,35.0,64,0.00,,CLR,0.13,VWS V14.01,2013-02-22 02:16:00,
2013-02-21 21:22:00,27.0,16.8,30.28,WSW,237,8.0,12.0,65,0.00,,CLR,0.13,VWS V14.01,2013-02-22 02:22:00,
2013-02-21 21:29:00,26.9,16.7,30.28,WNW,303,8.0,16.0,65,0.00,,CLR,0.13,VWS V14.01,2013-02-22 02:29:00,
2013-02-21 21:34:00,26.9,16.7,30.28,WNW,303,2.0,10.0,65,0.00,,CLR,0.13,VWS V14.01,2013-02-22 02:34:00,
2013-02-21 21:39:00,26.8,17.0,30.28,SW,232,2.0,20.0,66,0.00,,CLR,0.13,VWS V14.01,2013-02-22 02:39:00,
2013-02-21 21:44:00,26.8,16.6,30.28,WNW,295,2.0,8.0,65,0.00,,CLR,0.13,VWS V14.01,2013-02-22 02:44:00,
2013-02-21 21:50:00,26.7,16.5,30.28,NE,51,8.0,8.0,65,0.00,,CLR,0.13,VWS V14.01,2013-02-22 02:50:00,
2013-02-21 21:55:00,26.7,16.9,30.28,NNE,22,5.0,12.0,66,0.00,,CLR,0.13,VWS V14.01,2013-02-22 02:55:00,
2013-02-21 22:00:00,26.7,16.9,30.27,SW,217,2.0,14.0,66,0.00,,CLR,0.13,VWS V14.01,2013-02-22 03:00:00,
2013-02-21 22:05:00,26.6,16.8,30.28,ENE,60,2.0,10.0,66,0.00,,CLR,0.13,VWS V14.01,2013-02-22 03:05:00,
2013-02-21 22:10:00,26.6,16.8,30.27,NW,304,11.0,16.0,66,0.00,,CLR,0.13,VWS V14.01,2013-02-22 03:10:00,
2013-02-21 22:15:00,26.5,16.7,30.27,WNW,303,11.0,14.0,66,0.00,,CLR,0.13,VWS V14.01,2013-02-22 03:15:00,
2013-02-21 22:20:00,26.5,17.0,30.27,NNW,337,11.0,16.0,67,0.00,,CLR,0.13,VWS V14.01,2013-02-22 03:20:00,
2013-02-21 22:25:00,26.4,16.6,30.28,NE,56,8.0,12.0,66,0.00,,CLR,0.13,VWS V14.01,2013-02-22 03:25:00,
2013-02-21 22:30:00,26.4,16.9,30.27,SW,232,2.0,12.0,67,0.00,,CLR,0.13,VWS V14.01,2013-02-22 03:30:00,
2013-02-21 22:35:00,26.3,16.9,30.28,NNE,26,2.0,20.0,67,0.00,,CLR,0.13,VWS V14.01,2013-02-22 03:35:00,
2013-02-21 22:40:00,26.3,16.9,30.29,NW,309,2.0,20.0,67,0.00,,CLR,0.13,VWS V14.01,2013-02-22 03:40:00,
2013-02-21 22:45:00,26.2,16.8,30.29,NW,307,5.0,6.0,67,0.00,,CLR,0.13,VWS V14.01,2013-02-22 03:45:00,
2013-02-21 22:50:00,26.1,16.7,30.29,North,5,5.0,8.0,67,0.00,,CLR,0.13,VWS V14.01,2013-02-22 03:50:00,
2013-02-21 22:55:00,26.1,16.7,30.29,NNE,28,11.0,18.0,67,0.00,,CLR,0.13,VWS V14.01,2013-02-22 03:55:00,
2013-02-21 23:00:00,26.1,17.0,30.29,NE,41,2.0,18.0,68,0.00,,CLR,0.13,VWS V14.01,2013-02-22 04:00:00,
2013-02-21 23:05:00,26.1,17.0,30.28,NE,45,2.0,6.0,68,0.00,,CLR,0.13,VWS V14.01,2013-02-22 04:05:00,
2013-02-21 23:10:00,26.1,17.0,30.29,NNE,28,2.0,8.0,68,0.00,,CLR,0.13,VWS V14.01,2013-02-22 04:10:00,
2013-02-21 23:15:00,26.1,17.0,30.29,NNW,336,2.0,8.0,68,0.00,,CLR,0.13,VWS V14.01,2013-02-22 04:15:00,
2013-02-21 23:21:00,26.0,17.2,30.29,NW,315,5.0,8.0,69,0.00,,CLR,0.13,VWS V14.01,2013-02-22 04:21:00,
2013-02-21 23:26:00,25.9,17.1,30.29,West,259,2.0,14.0,69,0.00,,CLR,0.13,VWS V14.01,2013-02-22 04:26:00,
2013-02-21 23:31:00,25.9,17.1,30.29,ESE,109,14.0,14.0,69,0.00,,CLR,0.13,VWS V14.01,2013-02-22 04:31:00,
2013-02-21 23:36:00,25.9,17.1,30.29,NW,310,2.0,10.0,69,0.00,,CLR,0.13,VWS V14.01,2013-02-22 04:36:00,
2013-02-21 23:41:00,26.0,17.2,30.29,NE,40,2.0,6.0,69,0.00,,CLR,0.13,VWS V14.01,2013-02-22 04:41:00,
2013-02-21 23:46:00,26.0,17.2,30.29,NNE,17,2.0,14.0,69,0.00,,CLR,0.13,VWS V14.01,2013-02-22 04:46:00,
2013-02-21 23:51:00,26.0,17.2,30.29,NW,311,5.0,5.0,69,0.00,,CLR,0.13,VWS V14.01,2013-02-22 04:51:00,
2013-02-21 23:56:00,26.0,17.2,30.29,NE,44,5.0,10.0,69,0.00,,CLR,0.13,VWS V14.01,2013-02-22 04:56:00,